createdAt,value
2023-11-30T00:00:30.655Z,12.38
2023-11-30T00:02:57.735Z,14.47
2023-11-30T00:05:24.631Z,15.70
2023-11-30T00:07:53.143Z,12.30
2023-11-30T00:10:19.993Z,13.32
2023-11-30T00:12:46.849Z,11.23
2023-11-30T00:15:14.064Z,14.70
2023-11-30T00:17:41.098Z,17.63
2023-11-30T00:20:08.690Z,17.42
2023-11-30T00:22:35.534Z,16.58
2023-11-30T00:25:02.566Z,12.02
2023-11-30T00:27:30.028Z,14.88
2023-11-30T00:29:56.905Z,11.40
2023-11-30T00:32:24.611Z,16.03
2023-11-30T00:34:51.494Z,13.15
2023-11-30T00:37:18.951Z,14.00
2023-11-30T00:39:45.825Z,16.38
2023-11-30T00:42:12.852Z,13.13
2023-11-30T00:44:39.753Z,11.57
2023-11-30T00:47:06.752Z,14.23
2023-11-30T00:49:33.688Z,13.32
2023-11-30T00:52:00.567Z,14.88
2023-11-30T00:54:28.266Z,16.00
2023-11-30T00:56:55.219Z,14.77
2023-11-30T00:59:22.278Z,11.68
2023-11-30T01:01:49.297Z,16.27
2023-11-30T01:04:16.264Z,13.88
2023-11-30T01:06:43.102Z,16.08
2023-11-30T01:09:10.306Z,16.65
2023-11-30T01:11:43.524Z,19.52
2023-11-30T01:14:10.829Z,15.95
2023-11-30T01:16:37.784Z,16.08
2023-11-30T01:19:04.787Z,17.98
2023-11-30T01:21:32.223Z,15.85
2023-11-30T01:23:59.250Z,16.63
2023-11-30T01:26:26.298Z,15.98
2023-11-30T01:28:53.159Z,18.67
2023-11-30T01:31:20.005Z,17.02
2023-11-30T01:33:46.883Z,14.13
2023-11-30T01:36:14.580Z,15.05
2023-11-30T01:38:42.097Z,18.45
2023-11-30T01:41:09.048Z,15.57
2023-11-30T01:43:35.959Z,16.77
2023-11-30T01:46:04.449Z,17.80
2023-11-30T01:48:33.755Z,16.10
2023-11-30T01:51:03.999Z,14.30
2023-11-30T01:53:31.576Z,17.15
2023-11-30T01:55:58.574Z,13.77
2023-11-30T01:58:25.867Z,16.30
2023-11-30T02:00:54.367Z,16.45
2023-11-30T02:03:25.214Z,17.75
2023-11-30T02:05:53.644Z,19.67
2023-11-30T02:08:21.367Z,27.65
2023-11-30T02:10:48.208Z,25.40
2023-11-30T02:13:15.560Z,41.17
2023-11-30T02:15:42.515Z,118.95
2023-11-30T02:18:09.447Z,197.43
2023-11-30T02:20:36.585Z,218.50
2023-11-30T02:23:03.436Z,195.27
2023-11-30T02:25:30.360Z,282.70
2023-11-30T02:27:59.858Z,170.43
2023-11-30T02:30:26.968Z,296.27
2023-11-30T02:32:54.004Z,247.10
2023-11-30T02:35:20.998Z,301.55
2023-11-30T02:37:47.916Z,292.30
2023-11-30T02:40:14.801Z,358.60
2023-11-30T02:42:41.731Z,445.75
2023-11-30T02:45:09.260Z,333.92
2023-11-30T02:47:36.156Z,219.52
2023-11-30T02:50:03.080Z,202.33
2023-11-30T02:52:29.940Z,123.47
2023-11-30T02:54:56.788Z,104.82
2023-11-30T02:57:23.684Z,73.10
2023-11-30T02:59:50.585Z,69.85
2023-11-30T03:02:18.376Z,78.93
2023-11-30T03:04:46.441Z,56.70
2023-11-30T03:07:13.308Z,69.68
2023-11-30T03:09:40.448Z,40.58
2023-11-30T03:12:07.850Z,48.65
2023-11-30T03:14:35.031Z,50.87
2023-11-30T03:17:01.986Z,29.88
2023-11-30T03:19:28.926Z,25.42
2023-11-30T03:21:55.811Z,26.63
2023-11-30T03:24:24.040Z,26.33
2023-11-30T03:26:51.015Z,26.73
2023-11-30T03:29:17.962Z,27.67
2023-11-30T03:31:44.966Z,20.35
2023-11-30T03:34:11.900Z,25.17
2023-11-30T03:36:39.125Z,25.88
2023-11-30T03:39:06.176Z,23.30
2023-11-30T03:41:33.459Z,23.55
2023-11-30T03:44:00.356Z,21.92
2023-11-30T03:46:28.645Z,25.25
2023-11-30T03:48:55.879Z,24.80
2023-11-30T03:51:23.892Z,24.08
2023-11-30T03:53:50.749Z,23.63
2023-11-30T03:56:17.565Z,27.17
2023-11-30T03:58:44.533Z,22.98
2023-11-30T04:01:11.501Z,24.00
2023-11-30T04:03:38.617Z,22.83
2023-11-30T04:06:05.748Z,27.98
2023-11-30T04:08:35.431Z,27.92
2023-11-30T04:11:02.566Z,38.50
2023-11-30T04:13:29.665Z,26.52
2023-11-30T04:15:56.547Z,24.02
2023-11-30T04:18:23.465Z,46.22
2023-11-30T04:20:50.986Z,37.60
2023-11-30T04:23:18.043Z,27.55
2023-11-30T04:25:45.835Z,23.93
2023-11-30T04:28:12.669Z,21.83
2023-11-30T04:30:39.881Z,23.85
2023-11-30T04:33:06.954Z,24.70
2023-11-30T04:35:34.037Z,30.13
2023-11-30T04:38:02.499Z,34.42
2023-11-30T04:40:29.966Z,143.38
2023-11-30T04:42:56.841Z,30.30
2023-11-30T04:45:23.895Z,22.30
2023-11-30T04:47:51.187Z,21.70
2023-11-30T04:50:18.158Z,25.30
2023-11-30T04:52:45.016Z,30.20
2023-11-30T04:55:12.727Z,47.20
2023-11-30T04:57:39.670Z,32.55
2023-11-30T05:00:07.215Z,28.67
2023-11-30T05:02:37.052Z,25.23
2023-11-30T05:05:04.519Z,27.45
2023-11-30T05:07:31.501Z,26.55
2023-11-30T05:09:58.355Z,27.38
2023-11-30T05:12:26.108Z,27.17
2023-11-30T05:14:53.001Z,32.27
2023-11-30T05:17:19.893Z,31.02
2023-11-30T05:19:46.735Z,34.67
2023-11-30T05:22:13.624Z,50.33
2023-11-30T05:24:40.597Z,33.13
2023-11-30T05:27:07.597Z,29.85
2023-11-30T05:29:34.480Z,37.03
2023-11-30T05:32:01.454Z,37.50
2023-11-30T05:34:28.344Z,28.40
2023-11-30T05:36:55.154Z,31.65
2023-11-30T05:39:21.966Z,26.35
2023-11-30T05:41:48.989Z,25.67
2023-11-30T05:44:16.769Z,26.83
2023-11-30T05:46:43.671Z,26.70
2023-11-30T05:49:10.616Z,28.00
2023-11-30T05:51:37.491Z,27.23
2023-11-30T05:54:04.563Z,29.45
2023-11-30T05:56:31.583Z,30.08
2023-11-30T05:58:58.787Z,27.45
2023-11-30T06:01:25.679Z,31.05
2023-11-30T06:03:52.623Z,27.88
2023-11-30T06:06:19.636Z,29.88
2023-11-30T06:08:48.217Z,26.58
2023-11-30T06:11:18.577Z,26.83
2023-11-30T06:13:46.459Z,23.83
2023-11-30T06:16:13.657Z,28.90
2023-11-30T06:18:40.916Z,27.98
2023-11-30T06:21:10.717Z,24.90
2023-11-30T06:23:38.522Z,25.13
2023-11-30T06:26:06.230Z,27.20
2023-11-30T06:28:33.155Z,33.42
2023-11-30T06:31:00.026Z,30.13
2023-11-30T06:33:27.080Z,30.45
2023-11-30T06:35:54.011Z,30.73
2023-11-30T06:38:20.972Z,29.92
2023-11-30T06:40:50.063Z,30.05
2023-11-30T06:43:17.163Z,29.17
2023-11-30T06:45:44.451Z,30.23
2023-11-30T06:48:11.459Z,27.55
2023-11-30T06:50:38.450Z,33.00
2023-11-30T06:53:05.258Z,31.45
2023-11-30T06:55:32.414Z,31.75
2023-11-30T06:58:00.080Z,25.42
2023-11-30T07:00:28.090Z,24.73
2023-11-30T07:02:55.400Z,28.20
2023-11-30T07:05:22.304Z,28.63
2023-11-30T07:07:49.747Z,24.80
2023-11-30T07:10:16.747Z,24.00
2023-11-30T07:12:44.023Z,26.08
2023-11-30T07:15:11.151Z,22.80
2023-11-30T07:17:38.312Z,24.48
2023-11-30T07:20:05.929Z,22.65
2023-11-30T07:22:33.042Z,25.08
2023-11-30T07:24:59.956Z,26.15
2023-11-30T07:27:27.588Z,26.70
2023-11-30T07:29:54.954Z,25.52
2023-11-30T07:32:21.835Z,26.05
2023-11-30T07:34:48.920Z,26.75
2023-11-30T07:37:21.807Z,24.17
2023-11-30T07:39:48.741Z,23.85
2023-11-30T07:42:26.192Z,29.75
2023-11-30T07:45:00.426Z,25.42
2023-11-30T07:47:27.553Z,48.55
2023-11-30T07:49:55.308Z,25.27
2023-11-30T07:52:22.319Z,29.85
2023-11-30T07:54:49.247Z,30.33
2023-11-30T07:57:17.758Z,27.38
2023-11-30T07:59:45.466Z,26.63
2023-11-30T08:02:13.015Z,26.45
2023-11-30T08:04:40.789Z,30.05
2023-11-30T08:07:07.829Z,27.77
2023-11-30T08:09:34.721Z,28.27
2023-11-30T08:12:01.817Z,30.63
2023-11-30T08:14:29.353Z,29.98
2023-11-30T08:16:56.381Z,28.33
2023-11-30T08:19:23.375Z,27.83
2023-11-30T08:21:50.460Z,30.17
2023-11-30T08:24:17.403Z,31.65
2023-11-30T08:26:44.286Z,26.73
2023-11-30T08:29:11.153Z,27.63
2023-11-30T08:31:38.090Z,29.30
2023-11-30T08:34:05.303Z,28.02
2023-11-30T08:36:32.546Z,31.90
2023-11-30T08:38:59.495Z,30.83
2023-11-30T08:41:26.477Z,34.83
2023-11-30T08:43:53.453Z,28.38
2023-11-30T08:46:20.546Z,29.83
2023-11-30T08:48:47.641Z,30.27
2023-11-30T08:51:15.234Z,29.25
2023-11-30T08:53:42.182Z,31.70
2023-11-30T08:56:09.481Z,33.22
2023-11-30T08:58:36.931Z,28.90
2023-11-30T09:01:04.896Z,28.55
2023-11-30T09:03:31.824Z,31.75
2023-11-30T09:05:58.760Z,34.78
2023-11-30T09:08:25.642Z,33.55
2023-11-30T09:10:52.554Z,32.03
2023-11-30T09:13:19.524Z,29.58
2023-11-30T09:15:46.458Z,27.48
2023-11-30T09:18:13.514Z,31.67
2023-11-30T09:20:42.368Z,34.73
2023-11-30T09:23:09.292Z,31.20
2023-11-30T09:25:36.248Z,30.35
2023-11-30T09:28:03.815Z,29.70
2023-11-30T09:30:30.860Z,29.98
2023-11-30T09:32:57.887Z,31.27
2023-11-30T09:35:25.334Z,24.42
2023-11-30T09:37:52.579Z,24.55
2023-11-30T09:40:19.462Z,25.05
2023-11-30T09:42:47.122Z,22.80
2023-11-30T09:45:15.811Z,22.08
2023-11-30T09:47:42.916Z,27.40
2023-11-30T09:50:10.170Z,26.85
2023-11-30T09:52:38.635Z,29.13
2023-11-30T09:55:06.827Z,29.60
2023-11-30T09:57:33.952Z,31.10
2023-11-30T10:00:02.287Z,27.88
2023-11-30T10:02:32.454Z,28.33
2023-11-30T10:04:59.505Z,23.15
2023-11-30T10:07:30.400Z,26.77
2023-11-30T10:09:57.325Z,34.88
2023-11-30T10:12:25.588Z,32.67
2023-11-30T10:15:00.946Z,28.63
2023-11-30T10:17:31.157Z,33.58
2023-11-30T10:19:58.308Z,29.85
2023-11-30T10:22:25.152Z,34.53
2023-11-30T10:24:53.848Z,31.20
2023-11-30T10:27:24.679Z,30.88
2023-11-30T10:29:52.701Z,33.17
2023-11-30T10:32:21.857Z,32.20
2023-11-30T10:34:50.650Z,33.30
2023-11-30T10:37:20.589Z,32.58
2023-11-30T10:40:02.040Z,32.65
2023-11-30T10:42:30.673Z,28.48
2023-11-30T10:45:00.823Z,30.67
2023-11-30T10:47:30.217Z,31.63
2023-11-30T10:50:00.887Z,39.58
2023-11-30T10:52:32.706Z,39.90
2023-11-30T10:55:10.350Z,31.65
2023-11-30T10:57:41.921Z,34.05
2023-11-30T11:00:15.385Z,32.90
2023-11-30T11:02:47.906Z,34.63
2023-11-30T11:05:16.779Z,33.15
2023-11-30T11:07:58.877Z,36.70
2023-11-30T11:10:30.821Z,39.67
2023-11-30T11:13:01.933Z,35.58
2023-11-30T11:15:30.152Z,38.15
2023-11-30T11:18:04.663Z,35.83
2023-11-30T11:20:33.950Z,35.92
2023-11-30T11:23:04.162Z,38.38
2023-11-30T11:25:51.610Z,37.67
2023-11-30T11:28:20.005Z,38.08
2023-11-30T11:30:51.555Z,37.40
2023-11-30T11:33:26.822Z,34.70
2023-11-30T11:35:56.596Z,35.40
2023-11-30T11:38:23.621Z,31.10
2023-11-30T11:40:50.653Z,33.55
2023-11-30T11:43:17.513Z,33.00
2023-11-30T11:45:44.578Z,32.72
2023-11-30T11:48:14.128Z,32.10
2023-11-30T11:50:41.133Z,30.73
2023-11-30T11:53:08.023Z,29.02
2023-11-30T11:55:35.173Z,28.33
2023-11-30T11:58:02.234Z,31.63
2023-11-30T12:00:31.371Z,29.70
2023-11-30T12:03:09.276Z,33.60
2023-11-30T12:05:47.604Z,29.63
2023-11-30T12:08:15.344Z,30.27
2023-11-30T12:10:51.622Z,29.30
2023-11-30T12:13:18.767Z,31.50
2023-11-30T12:15:47.692Z,27.92
2023-11-30T12:18:15.945Z,29.50
2023-11-30T12:20:44.515Z,24.77
2023-11-30T12:23:13.754Z,27.67
2023-11-30T12:25:40.736Z,29.30
2023-11-30T12:28:07.649Z,28.93
2023-11-30T12:30:34.643Z,26.35
2023-11-30T12:33:01.759Z,27.73
2023-11-30T12:35:28.671Z,29.75
2023-11-30T12:37:55.920Z,28.65
2023-11-30T12:40:22.894Z,24.38
2023-11-30T12:42:49.902Z,29.60
2023-11-30T12:45:16.983Z,31.08
2023-11-30T12:47:45.139Z,30.58
2023-11-30T12:50:12.313Z,30.02
2023-11-30T12:52:39.716Z,26.60
2023-11-30T12:55:07.411Z,29.90
2023-11-30T12:57:39.982Z,30.92
2023-11-30T13:00:15.801Z,30.55
2023-11-30T13:02:46.356Z,27.10
2023-11-30T13:05:14.312Z,30.02
2023-11-30T13:07:41.887Z,27.85
2023-11-30T13:10:12.757Z,28.30
2023-11-30T13:12:41.650Z,30.60
2023-11-30T13:15:11.807Z,32.33
2023-11-30T13:17:39.529Z,29.23
2023-11-30T13:20:09.935Z,35.67
2023-11-30T13:22:36.895Z,34.90
2023-11-30T13:25:04.490Z,35.13
2023-11-30T13:27:31.586Z,34.90
2023-11-30T13:29:58.675Z,35.00
2023-11-30T13:32:25.562Z,34.08
2023-11-30T13:34:52.539Z,38.22
2023-11-30T13:37:19.412Z,37.97
2023-11-30T13:39:46.706Z,34.95
2023-11-30T13:42:13.706Z,34.87
2023-11-30T13:44:40.640Z,36.35
2023-11-30T13:47:09.165Z,34.72
2023-11-30T13:49:36.124Z,35.25
2023-11-30T13:52:03.154Z,37.45
2023-11-30T13:54:30.106Z,38.42
2023-11-30T13:56:57.055Z,41.10
2023-11-30T13:59:24.016Z,34.92
2023-11-30T14:01:51.987Z,40.42
2023-11-30T14:04:19.603Z,37.72
2023-11-30T14:06:51.283Z,39.70
2023-11-30T14:09:27.242Z,44.25
2023-11-30T14:11:58.192Z,37.35
2023-11-30T14:14:25.048Z,41.20
2023-11-30T14:16:52.090Z,52.28
2023-11-30T14:19:19.284Z,38.53
2023-11-30T14:21:46.176Z,39.60
2023-11-30T14:24:13.143Z,42.88
2023-11-30T14:26:40.569Z,42.03
2023-11-30T14:29:07.600Z,40.60
2023-11-30T14:31:34.584Z,39.88
2023-11-30T14:34:01.656Z,42.88
2023-11-30T14:36:30.673Z,43.88
2023-11-30T14:38:58.860Z,42.83
2023-11-30T14:41:26.076Z,38.13
2023-11-30T14:43:53.077Z,50.55
2023-11-30T14:46:20.147Z,40.83
2023-11-30T14:48:47.278Z,45.67
2023-11-30T14:51:14.632Z,48.67
2023-11-30T14:53:42.672Z,38.92
2023-11-30T14:56:09.746Z,34.90
2023-11-30T14:58:36.669Z,36.97
2023-11-30T15:01:04.290Z,38.08
2023-11-30T15:03:32.751Z,35.10
2023-11-30T15:05:59.819Z,39.70
2023-11-30T15:08:26.792Z,35.93
2023-11-30T15:10:53.993Z,39.58
2023-11-30T15:13:23.511Z,40.97
2023-11-30T15:15:50.404Z,38.03
2023-11-30T15:18:17.327Z,37.75
2023-11-30T15:20:44.592Z,36.22
2023-11-30T15:23:11.573Z,37.97
2023-11-30T15:25:39.692Z,35.25
2023-11-30T15:28:11.045Z,37.83
2023-11-30T15:30:39.463Z,37.80
2023-11-30T15:33:07.423Z,35.20
2023-11-30T15:35:35.633Z,32.28
2023-11-30T15:38:03.971Z,30.25
2023-11-30T15:40:30.958Z,36.28
2023-11-30T15:42:58.238Z,36.67
2023-11-30T15:45:27.312Z,31.45
2023-11-30T15:47:54.401Z,37.20
2023-11-30T15:50:21.456Z,37.95
2023-11-30T15:52:48.412Z,35.42
2023-11-30T15:55:15.524Z,38.13
2023-11-30T15:57:43.207Z,34.45
2023-11-30T16:00:10.825Z,38.53
2023-11-30T16:02:42.664Z,37.85
2023-11-30T16:05:09.889Z,32.15
2023-11-30T16:07:36.784Z,33.40
2023-11-30T16:10:07.666Z,33.10
2023-11-30T16:12:34.877Z,34.40
2023-11-30T16:15:01.999Z,36.40
2023-11-30T16:17:28.979Z,34.07
2023-11-30T16:19:55.952Z,31.08
2023-11-30T16:22:23.353Z,35.03
2023-11-30T16:24:50.376Z,33.65
2023-11-30T16:27:17.361Z,41.13
2023-11-30T16:29:45.092Z,35.28
2023-11-30T16:32:12.120Z,34.35
2023-11-30T16:34:39.026Z,35.65
2023-11-30T16:37:06.415Z,39.60
2023-11-30T16:39:33.424Z,40.00
2023-11-30T16:42:00.428Z,32.20
2023-11-30T16:44:27.823Z,36.63
2023-11-30T16:46:55.506Z,37.72
2023-11-30T16:49:22.507Z,37.07
2023-11-30T16:51:55.226Z,34.92
2023-11-30T16:54:24.522Z,41.05
2023-11-30T16:56:51.491Z,36.90
2023-11-30T16:59:18.391Z,36.75
2023-11-30T17:01:45.338Z,32.97
2023-11-30T17:04:12.420Z,32.95
2023-11-30T17:06:39.715Z,45.65
2023-11-30T17:09:06.626Z,39.63
2023-11-30T17:11:33.562Z,41.30
2023-11-30T17:14:00.466Z,48.60
2023-11-30T17:16:27.407Z,39.85
2023-11-30T17:18:54.807Z,49.38
2023-11-30T17:21:22.588Z,40.95
2023-11-30T17:23:49.576Z,46.63
2023-11-30T17:26:16.613Z,42.78
2023-11-30T17:28:44.432Z,45.88
2023-11-30T17:31:11.542Z,43.72
2023-11-30T17:33:38.721Z,48.70
2023-11-30T17:36:06.164Z,43.97
2023-11-30T17:38:33.175Z,45.58
2023-11-30T17:41:00.153Z,40.58
2023-11-30T17:43:27.095Z,45.35
2023-11-30T17:45:54.010Z,42.63
2023-11-30T17:48:20.957Z,53.53
2023-11-30T17:50:47.832Z,50.78
2023-11-30T17:53:14.760Z,46.90
2023-11-30T17:55:42.205Z,46.92
2023-11-30T17:58:09.180Z,43.67
2023-11-30T18:00:36.419Z,52.13
2023-11-30T18:03:03.416Z,52.58
2023-11-30T18:05:30.381Z,84.00
2023-11-30T18:07:57.268Z,110.10
2023-11-30T18:10:24.199Z,68.57
2023-11-30T18:12:51.185Z,81.63
2023-11-30T18:15:18.237Z,153.52
2023-11-30T18:17:46.410Z,155.27
2023-11-30T18:20:13.331Z,246.23
2023-11-30T18:22:40.176Z,88.33
2023-11-30T18:25:07.393Z,65.05
2023-11-30T18:27:34.388Z,58.42
2023-11-30T18:30:03.813Z,62.15
2023-11-30T18:32:31.783Z,78.47
2023-11-30T18:34:59.063Z,66.65
2023-11-30T18:37:25.911Z,90.93
2023-11-30T18:39:53.003Z,80.75
2023-11-30T18:42:19.972Z,79.57
2023-11-30T18:44:46.972Z,126.60
2023-11-30T18:47:15.705Z,84.53
2023-11-30T18:49:42.985Z,206.95
2023-11-30T18:52:09.972Z,241.73
2023-11-30T18:54:37.159Z,444.65
2023-11-30T18:57:04.360Z,368.17
2023-11-30T18:59:32.344Z,571.58
2023-11-30T19:01:59.572Z,555.58
2023-11-30T19:04:26.934Z,371.23
2023-11-30T19:06:53.902Z,439.55
2023-11-30T19:09:20.902Z,532.40
2023-11-30T19:11:50.238Z,627.78
2023-11-30T19:14:17.246Z,488.33
2023-11-30T19:16:45.701Z,642.30
2023-11-30T19:19:12.847Z,359.70
2023-11-30T19:21:42.633Z,444.80
2023-11-30T19:24:11.624Z,607.95
2023-11-30T19:26:40.748Z,225.82
2023-11-30T19:29:07.691Z,475.03
2023-11-30T19:31:34.682Z,14.75
2023-11-30T19:34:01.833Z,24.27
2023-11-30T19:36:28.943Z,178.13
2023-11-30T19:38:55.838Z,110.03
2023-11-30T19:41:22.765Z,225.55
2023-11-30T19:43:51.000Z,404.65
2023-11-30T19:46:18.262Z,392.52
2023-11-30T19:48:45.737Z,181.52
2023-11-30T19:51:19.369Z,515.25
2023-11-30T19:53:46.319Z,441.90
2023-11-30T19:56:17.566Z,349.65
2023-11-30T19:58:45.509Z,234.85
2023-11-30T20:01:13.200Z,525.50
2023-11-30T20:03:40.428Z,312.83
2023-11-30T20:06:07.713Z,211.10
2023-11-30T20:08:34.658Z,474.45
2023-11-30T20:11:06.029Z,255.10
2023-11-30T20:13:33.324Z,576.85
2023-11-30T20:16:01.014Z,560.85
2023-11-30T20:18:28.743Z,216.70
2023-11-30T20:20:55.815Z,330.77
2023-11-30T20:23:22.726Z,269.02
2023-11-30T20:25:49.735Z,370.23
2023-11-30T20:28:16.641Z,397.73
2023-11-30T20:30:43.637Z,335.08
2023-11-30T20:33:10.665Z,444.67
2023-11-30T20:35:37.558Z,422.15
2023-11-30T20:38:04.617Z,140.80
2023-11-30T20:40:31.597Z,142.77
2023-11-30T20:42:58.602Z,381.93
2023-11-30T20:45:25.613Z,417.73
2023-11-30T20:47:52.922Z,358.98
2023-11-30T20:50:20.068Z,225.37
2023-11-30T20:52:46.884Z,362.98
2023-11-30T20:55:15.623Z,304.58
2023-11-30T20:57:45.605Z,284.00
2023-11-30T21:00:13.054Z,265.55
2023-11-30T21:02:40.152Z,364.05
2023-11-30T21:05:07.829Z,219.23
2023-11-30T21:07:34.763Z,227.02
2023-11-30T21:10:01.892Z,238.73
2023-11-30T21:12:28.951Z,244.30
2023-11-30T21:14:56.164Z,217.25
2023-11-30T21:17:23.701Z,232.45
2023-11-30T21:19:50.593Z,311.90
2023-11-30T21:22:19.571Z,292.98
2023-11-30T21:24:48.200Z,294.98
2023-11-30T21:27:15.245Z,263.00
2023-11-30T21:29:42.178Z,306.88
2023-11-30T21:32:10.061Z,294.52
2023-11-30T21:34:38.446Z,221.40
2023-11-30T21:37:05.543Z,241.43
2023-11-30T21:39:32.927Z,230.38
2023-11-30T21:41:59.879Z,296.63
2023-11-30T21:44:27.593Z,230.95
2023-11-30T21:46:54.508Z,238.23
2023-11-30T21:49:21.584Z,223.43
2023-11-30T21:51:48.872Z,159.20
2023-11-30T21:54:15.934Z,133.23
2023-11-30T21:56:42.832Z,121.35
2023-11-30T21:59:09.811Z,141.93
2023-11-30T22:01:37.243Z,142.55
2023-11-30T22:04:04.953Z,168.18
2023-11-30T22:06:32.058Z,169.75
2023-11-30T22:08:58.967Z,163.65
2023-11-30T22:11:25.840Z,182.35
2023-11-30T22:13:53.242Z,101.18
2023-11-30T22:16:26.360Z,153.00
2023-11-30T22:19:00.728Z,182.30
2023-11-30T22:21:27.669Z,70.75
2023-11-30T22:23:54.597Z,112.78
2023-11-30T22:26:21.455Z,141.20
2023-11-30T22:28:48.317Z,99.93
2023-11-30T22:31:18.213Z,155.10
2023-11-30T22:33:45.401Z,203.18
2023-11-30T22:36:12.605Z,118.97
2023-11-30T22:38:45.388Z,88.43
2023-11-30T22:41:13.664Z,151.30
2023-11-30T22:43:40.591Z,180.10
2023-11-30T22:46:15.170Z,169.20
2023-11-30T22:48:43.883Z,116.88
2023-11-30T22:51:10.990Z,42.05
2023-11-30T22:53:37.967Z,89.00
2023-11-30T22:56:05.359Z,39.27
2023-11-30T22:58:32.919Z,31.92
2023-11-30T23:01:01.349Z,26.50
2023-11-30T23:03:28.839Z,31.85
2023-11-30T23:05:55.951Z,33.10
2023-11-30T23:08:22.864Z,71.50
2023-11-30T23:10:49.873Z,35.28
2023-11-30T23:13:17.022Z,56.80
2023-11-30T23:15:44.408Z,75.05
2023-11-30T23:18:11.554Z,53.33
2023-11-30T23:20:38.447Z,63.65
2023-11-30T23:23:05.603Z,68.05
2023-11-30T23:25:33.245Z,29.83
2023-11-30T23:28:00.718Z,56.85
2023-11-30T23:30:27.883Z,66.28
2023-11-30T23:32:55.717Z,47.17
2023-11-30T23:35:22.704Z,61.08
2023-11-30T23:37:49.651Z,48.25
2023-11-30T23:40:16.532Z,42.83
2023-11-30T23:42:43.380Z,47.15
2023-11-30T23:45:11.177Z,69.15
2023-11-30T23:47:38.929Z,59.53
2023-11-30T23:50:06.799Z,61.63
2023-11-30T23:52:33.781Z,47.42
2023-11-30T23:55:00.882Z,73.15
2023-11-30T23:57:28.110Z,62.42
2023-11-30T23:59:55.512Z,51.25
